createdAt,value
2023-01-11T00:01:53.813Z,73.80
2023-01-11T00:04:21.285Z,72.90
2023-01-11T00:06:47.962Z,76.20
2023-01-11T00:09:14.650Z,70.90
2023-01-11T00:11:41.188Z,70.50
2023-01-11T00:14:07.627Z,65.90
2023-01-11T00:16:34.176Z,71.20
2023-01-11T00:19:00.629Z,72.60
2023-01-11T00:21:27.088Z,58.30
2023-01-11T00:23:53.564Z,63.00
2023-01-11T00:26:20.135Z,63.00
2023-01-11T00:28:49.242Z,57.30
2023-01-11T00:31:17.050Z,60.60
2023-01-11T00:33:43.643Z,62.00
2023-01-11T00:36:10.175Z,60.20
2023-01-11T00:38:36.837Z,61.00
2023-01-11T00:41:03.368Z,58.80
2023-01-11T00:43:29.899Z,57.60
2023-01-11T00:45:58.699Z,56.90
2023-01-11T00:48:25.556Z,61.70
2023-01-11T00:50:55.664Z,53.90
2023-01-11T00:53:22.410Z,59.60
2023-01-11T00:55:52.193Z,62.00
2023-01-11T00:58:18.666Z,56.40
2023-01-11T01:00:45.198Z,54.40
2023-01-11T01:03:11.862Z,59.70
2023-01-11T01:05:39.232Z,60.20
2023-01-11T01:08:06.503Z,57.90
2023-01-11T01:10:33.006Z,60.50
2023-01-11T01:12:59.473Z,57.60
2023-01-11T01:15:26.395Z,57.10
2023-01-11T01:17:54.465Z,62.50
2023-01-11T01:20:22.747Z,57.50
2023-01-11T01:22:50.134Z,59.40
2023-01-11T01:25:17.807Z,67.30
2023-01-11T01:27:44.494Z,58.10
2023-01-11T01:30:11.816Z,60.60
2023-01-11T01:32:38.307Z,74.20
2023-01-11T01:35:05.464Z,58.50
2023-01-11T01:37:31.999Z,59.70
2023-01-11T01:39:58.408Z,61.50
2023-01-11T01:42:24.962Z,60.00
2023-01-11T01:44:53.386Z,49.80
2023-01-11T01:47:49.033Z,47.20
2023-01-11T01:50:41.050Z,62.80
2023-01-11T01:53:11.881Z,52.10
2023-01-11T01:55:43.440Z,55.10
2023-01-11T01:58:16.331Z,54.90
2023-01-11T02:00:45.743Z,52.60
2023-01-11T02:03:20.719Z,57.20
2023-01-11T02:05:48.482Z,63.00
2023-01-11T02:08:25.085Z,59.20
2023-01-11T02:10:52.487Z,62.50
2023-01-11T02:13:20.860Z,64.80
2023-01-11T02:15:47.825Z,63.60
2023-01-11T02:18:14.432Z,70.80
2023-01-11T02:21:09.142Z,74.50
2023-01-11T02:23:52.461Z,75.80
2023-01-11T02:26:40.034Z,80.40
2023-01-11T02:29:52.306Z,79.80
2023-01-11T02:32:51.094Z,81.90
2023-01-11T02:35:26.347Z,82.90
2023-01-11T02:38:24.018Z,83.40
2023-01-11T02:41:08.904Z,82.10
2023-01-11T02:44:03.484Z,75.90
2023-01-11T02:46:53.786Z,81.90
2023-01-11T02:49:51.241Z,84.00
2023-01-11T02:52:36.426Z,76.10
2023-01-11T02:55:04.792Z,87.50
2023-01-11T02:57:32.769Z,83.60
2023-01-11T03:00:00.544Z,83.50
2023-01-11T03:02:27.225Z,78.90
2023-01-11T03:04:53.700Z,87.50
2023-01-11T03:07:48.315Z,84.70
2023-01-11T03:10:23.859Z,81.00
2023-01-11T03:13:11.942Z,85.90
2023-01-11T03:15:56.992Z,82.70
2023-01-11T03:18:26.249Z,85.70
2023-01-11T03:21:20.470Z,79.40
2023-01-11T03:23:56.025Z,79.60
2023-01-11T03:26:29.376Z,82.30
2023-01-11T03:29:34.564Z,81.90
2023-01-11T03:32:16.358Z,90.70
2023-01-11T03:35:10.440Z,79.30
2023-01-11T03:37:47.937Z,92.00
2023-01-11T03:40:20.928Z,83.10
2023-01-11T03:42:53.427Z,82.40
2023-01-11T03:45:20.043Z,84.70
2023-01-11T03:47:46.801Z,146.40
2023-01-11T03:50:14.038Z,141.30
2023-01-11T03:52:42.648Z,113.30
2023-01-11T03:55:12.310Z,89.10
2023-01-11T03:57:49.339Z,82.80
2023-01-11T04:00:16.480Z,76.20
2023-01-11T04:02:42.921Z,76.70
2023-01-11T04:05:10.715Z,75.90
2023-01-11T04:07:37.328Z,74.30
2023-01-11T04:10:05.141Z,74.50
2023-01-11T04:12:31.727Z,71.70
2023-01-11T04:14:58.167Z,74.20
2023-01-11T04:17:24.594Z,83.20
2023-01-11T04:19:51.144Z,71.20
2023-01-11T04:22:17.711Z,72.60
2023-01-11T04:24:44.218Z,69.60
2023-01-11T04:27:10.719Z,69.20
2023-01-11T04:29:37.153Z,73.10
2023-01-11T04:32:03.743Z,80.60
2023-01-11T04:34:30.431Z,65.70
2023-01-11T04:36:56.919Z,75.10
2023-01-11T04:39:23.613Z,62.00
2023-01-11T04:41:50.069Z,65.90
2023-01-11T04:44:16.539Z,71.70
2023-01-11T04:46:43.174Z,71.30
2023-01-11T04:49:09.834Z,67.90
2023-01-11T04:51:37.976Z,66.10
2023-01-11T04:54:04.637Z,66.70
2023-01-11T04:56:31.595Z,70.70
2023-01-11T04:58:58.364Z,70.70
2023-01-11T05:01:24.959Z,70.80
2023-01-11T05:03:51.712Z,70.70
2023-01-11T05:06:19.180Z,72.40
2023-01-11T05:08:46.939Z,75.00
2023-01-11T05:11:13.571Z,71.60
2023-01-11T05:13:40.140Z,71.80
2023-01-11T05:16:32.908Z,75.20
2023-01-11T05:19:00.816Z,71.30
2023-01-11T05:21:39.082Z,67.90
2023-01-11T05:24:11.247Z,69.90
2023-01-11T05:26:40.223Z,70.40
2023-01-11T05:29:09.753Z,63.60
2023-01-11T05:31:37.805Z,63.50
2023-01-11T05:34:05.516Z,78.10
2023-01-11T05:36:31.913Z,101.20
2023-01-11T05:38:58.572Z,68.10
2023-01-11T05:41:26.929Z,86.30
2023-01-11T05:43:54.809Z,82.50
2023-01-11T05:46:22.599Z,78.70
2023-01-11T05:48:49.448Z,80.40
2023-01-11T05:51:16.254Z,85.90
2023-01-11T05:53:43.485Z,74.30
2023-01-11T05:56:10.003Z,80.60
2023-01-11T05:58:36.524Z,69.50
2023-01-11T06:01:03.267Z,79.90
2023-01-11T06:03:29.711Z,78.40
2023-01-11T06:05:58.944Z,77.60
2023-01-11T06:08:26.168Z,79.80
2023-01-11T06:10:54.452Z,80.30
2023-01-11T06:13:21.284Z,75.80
2023-01-11T06:15:47.740Z,73.30
2023-01-11T06:18:14.904Z,76.20
2023-01-11T06:20:41.647Z,78.80
2023-01-11T06:23:08.422Z,85.20
2023-01-11T06:25:36.048Z,86.60
2023-01-11T06:28:02.502Z,76.70
2023-01-11T06:30:29.138Z,85.70
2023-01-11T06:32:55.656Z,81.40
2023-01-11T06:35:22.207Z,96.10
2023-01-11T06:37:48.744Z,96.50
2023-01-11T06:40:15.299Z,113.80
2023-01-11T06:42:41.751Z,79.70
2023-01-11T06:45:09.115Z,82.90
2023-01-11T06:47:35.544Z,103.20
2023-01-11T06:50:02.029Z,100.50
2023-01-11T06:52:28.473Z,100.30
2023-01-11T06:54:54.929Z,81.80
2023-01-11T06:57:21.400Z,88.60
2023-01-11T06:59:47.829Z,92.70
2023-01-11T07:02:14.544Z,95.50
2023-01-11T07:04:40.974Z,93.80
2023-01-11T07:07:07.421Z,107.30
2023-01-11T07:09:33.954Z,100.50
2023-01-11T07:12:00.498Z,97.00
2023-01-11T07:14:27.036Z,108.50
2023-01-11T07:16:53.566Z,112.20
2023-01-11T07:19:19.972Z,105.80
2023-01-11T07:21:46.408Z,109.20
2023-01-11T07:24:14.905Z,106.40
2023-01-11T07:26:41.287Z,97.30
2023-01-11T07:29:08.761Z,95.70
2023-01-11T07:31:35.588Z,101.30
2023-01-11T07:34:02.943Z,85.10
2023-01-11T07:36:29.563Z,86.50
2023-01-11T07:38:56.320Z,82.80
2023-01-11T07:41:22.841Z,82.50
2023-01-11T07:43:49.407Z,81.50
2023-01-11T07:46:16.064Z,84.60
2023-01-11T07:48:42.594Z,78.00
2023-01-11T07:51:09.539Z,73.90
2023-01-11T07:53:37.602Z,73.90
2023-01-11T07:56:04.360Z,81.60
2023-01-11T07:58:30.843Z,75.50
2023-01-11T08:00:59.477Z,73.40
2023-01-11T08:03:26.022Z,81.00
2023-01-11T08:05:52.868Z,124.30
2023-01-11T08:08:19.663Z,104.40
2023-01-11T08:10:46.260Z,134.50
2023-01-11T08:13:13.929Z,79.40
2023-01-11T08:15:40.690Z,58.40
2023-01-11T08:18:07.098Z,66.30
2023-01-11T08:20:34.377Z,58.90
2023-01-11T08:23:05.811Z,59.20
2023-01-11T08:28:01.375Z,45.40
2023-01-11T08:30:28.716Z,47.20
2023-01-11T08:32:55.332Z,45.30
2023-01-11T08:35:21.836Z,42.80
2023-01-11T08:37:48.338Z,44.20
2023-01-11T08:40:14.869Z,38.70
2023-01-11T08:42:41.344Z,40.20
2023-01-11T08:45:08.323Z,40.20
2023-01-11T08:47:34.723Z,39.10
2023-01-11T08:50:01.234Z,41.60
2023-01-11T08:52:27.649Z,45.50
2023-01-11T08:54:54.129Z,46.50
2023-01-11T08:57:20.881Z,41.20
2023-01-11T08:59:47.405Z,42.80
2023-01-11T09:02:13.784Z,60.40
2023-01-11T09:04:41.735Z,48.30
2023-01-11T09:07:08.128Z,47.80
2023-01-11T09:09:34.660Z,49.70
2023-01-11T09:12:01.119Z,41.60
2023-01-11T09:14:28.734Z,39.90
2023-01-11T09:16:55.983Z,25.20
2023-01-11T09:19:22.993Z,23.90
2023-01-11T09:21:49.763Z,27.30
2023-01-11T09:24:16.198Z,30.30
2023-01-11T09:26:42.748Z,26.70
2023-01-11T09:29:10.208Z,25.80
2023-01-11T09:31:36.916Z,24.50
2023-01-11T09:34:03.509Z,25.40
2023-01-11T09:36:30.021Z,30.90
2023-01-11T09:38:56.587Z,25.20
2023-01-11T09:41:41.122Z,24.50
2023-01-11T09:44:17.341Z,22.50
2023-01-11T09:46:48.471Z,23.00
2023-01-11T09:49:24.694Z,29.70
2023-01-11T09:51:51.550Z,25.00
2023-01-11T09:54:23.636Z,21.30
2023-01-11T09:56:59.483Z,21.80
2023-01-11T09:59:37.285Z,21.50
2023-01-11T10:02:13.211Z,20.80
2023-01-11T10:05:06.099Z,21.30
2023-01-11T10:07:41.614Z,27.70
2023-01-11T10:18:30.323Z,21.30
2023-01-11T10:19:39.766Z,22.10
2023-01-11T10:22:31.943Z,20.90
2023-01-11T10:25:04.444Z,21.70
2023-01-11T10:27:46.488Z,22.20
2023-01-11T10:30:22.952Z,23.90
2023-01-11T10:32:51.313Z,28.40
2023-01-11T10:35:20.288Z,24.90
2023-01-11T10:37:50.279Z,22.70
2023-01-11T10:40:27.496Z,23.10
2023-01-11T10:43:09.422Z,24.50
2023-01-11T10:45:44.699Z,22.30
2023-01-11T10:48:26.258Z,22.70
2023-01-11T10:53:54.287Z,23.00
2023-01-11T10:57:03.146Z,22.40
2023-01-11T10:59:49.906Z,24.50
2023-01-11T11:02:23.399Z,21.00
2023-01-11T11:05:13.397Z,20.60
2023-01-11T11:07:50.770Z,20.90
2023-01-11T11:10:53.197Z,17.60
2023-01-11T11:13:28.936Z,13.80
2023-01-11T11:16:10.853Z,17.70
2023-01-11T11:18:37.607Z,16.20
2023-01-11T11:21:10.714Z,13.80
2023-01-11T11:23:38.916Z,16.90
2023-01-11T11:26:07.324Z,20.00
2023-01-11T11:28:33.902Z,21.00
2023-01-11T11:31:03.629Z,19.30
2023-01-11T11:33:37.600Z,13.00
2023-01-11T11:36:09.114Z,9.00
2023-01-11T11:38:38.910Z,10.40
2023-01-11T11:41:09.577Z,16.20
2023-01-11T11:43:44.363Z,14.50
2023-01-11T11:46:18.664Z,14.30
2023-01-11T11:49:17.903Z,10.70
2023-01-11T11:51:46.990Z,15.40
2023-01-11T11:54:22.974Z,10.90
2023-01-11T11:56:50.634Z,9.90
2023-01-11T11:59:20.661Z,12.60
2023-01-11T12:01:55.220Z,10.20
2023-01-11T12:04:46.299Z,11.10
2023-01-11T12:07:22.784Z,11.70
2023-01-11T12:09:57.145Z,12.70
2023-01-11T12:12:26.916Z,15.10
2023-01-11T12:15:26.765Z,14.40
2023-01-11T12:17:53.877Z,12.50
2023-01-11T12:20:23.164Z,12.60
2023-01-11T12:22:50.823Z,14.30
2023-01-11T12:25:17.375Z,13.30
2023-01-11T12:27:55.996Z,12.70
2023-01-11T12:30:31.200Z,11.60
2023-01-11T12:33:16.340Z,12.80
2023-01-11T12:36:09.326Z,10.80
2023-01-11T12:38:38.982Z,10.60
2023-01-11T12:41:21.009Z,13.00
2023-01-11T12:44:04.258Z,12.80
2023-01-11T12:46:39.559Z,10.40
2023-01-11T12:49:43.773Z,9.80
2023-01-11T12:52:27.856Z,10.10
2023-01-11T12:55:23.743Z,8.80
2023-01-11T12:58:14.726Z,8.00
2023-01-11T13:00:44.247Z,9.00
2023-01-11T13:03:22.910Z,9.60
2023-01-11T13:06:09.947Z,11.40
2023-01-11T13:08:53.882Z,10.30
2023-01-11T13:11:32.622Z,10.80
2023-01-11T13:14:02.833Z,9.00
2023-01-11T13:16:39.506Z,10.40
2023-01-11T13:19:14.035Z,9.80
2023-01-11T13:21:47.628Z,11.90
2023-01-11T13:24:17.587Z,17.00
2023-01-11T13:26:50.746Z,12.40
2023-01-11T13:29:35.122Z,14.70
2023-01-11T13:32:06.811Z,16.80
2023-01-11T13:34:39.159Z,11.20
2023-01-11T13:37:19.088Z,13.70
2023-01-11T13:39:51.829Z,14.90
2023-01-11T13:42:25.291Z,12.70
2023-01-11T13:44:59.920Z,15.60
2023-01-11T13:47:42.462Z,14.20
2023-01-11T13:50:21.232Z,15.50
2023-01-11T13:53:12.604Z,16.80
2023-01-11T13:58:30.944Z,16.10
2023-01-11T14:01:11.361Z,14.50
2023-01-11T14:03:52.680Z,17.60
2023-01-11T14:06:53.669Z,14.50
2023-01-11T14:10:02.190Z,14.70
2023-01-11T14:12:47.651Z,17.60
2023-01-11T14:15:40.802Z,19.40
2023-01-11T14:18:14.210Z,19.10
2023-01-11T14:20:52.676Z,18.30
2023-01-11T14:23:21.892Z,19.00
2023-01-11T14:26:11.113Z,18.30
2023-01-11T14:28:51.730Z,23.70
2023-01-11T14:31:33.683Z,26.00
2023-01-11T14:34:22.258Z,23.10
2023-01-11T14:37:04.067Z,24.90
2023-01-11T14:39:42.737Z,25.40
2023-01-11T14:42:35.654Z,27.60
2023-01-11T14:45:18.866Z,33.50
2023-01-11T14:48:10.606Z,23.60
2023-01-11T14:50:55.985Z,27.80
2023-01-11T14:53:42.595Z,31.10
2023-01-11T14:56:57.609Z,34.70
2023-01-11T14:59:53.593Z,53.30
2023-01-11T15:02:29.015Z,50.20
2023-01-11T15:04:55.483Z,76.40
2023-01-11T15:07:31.116Z,63.10
2023-01-11T15:09:59.437Z,64.90
2023-01-11T15:12:32.709Z,63.00
2023-01-11T15:15:19.046Z,100.90
2023-01-11T15:17:52.977Z,56.80
2023-01-11T15:20:22.016Z,46.40
2023-01-11T15:23:04.134Z,86.00
2023-01-11T15:28:39.989Z,95.70
2023-01-11T15:44:51.514Z,107.40
2023-01-11T15:47:40.542Z,105.30
2023-01-11T15:50:28.466Z,88.80
2023-01-11T15:53:42.637Z,85.90
2023-01-11T15:56:53.866Z,86.10
2023-01-11T16:00:00.007Z,70.10
2023-01-11T16:02:48.269Z,135.60
2023-01-11T16:05:26.239Z,120.70
2023-01-11T16:07:58.619Z,125.80
2023-01-11T16:10:41.078Z,155.70
2023-01-11T16:13:29.948Z,218.00
2023-01-11T16:16:15.327Z,211.00
2023-01-11T16:18:52.338Z,120.20
2023-01-11T16:21:29.792Z,112.50
2023-01-11T16:23:56.763Z,144.80
2023-01-11T16:26:24.037Z,141.80
2023-01-11T16:28:57.759Z,180.40
2023-01-11T16:31:25.365Z,224.10
2023-01-11T16:33:52.494Z,234.60
2023-01-11T16:36:21.441Z,220.80
2023-01-11T16:39:05.757Z,267.80
2023-01-11T16:41:46.891Z,241.90
2023-01-11T16:44:32.786Z,224.80
2023-01-11T16:47:18.481Z,215.60
2023-01-11T16:49:50.342Z,210.20
2023-01-11T16:52:28.936Z,271.40
2023-01-11T16:54:59.867Z,272.20
2023-01-11T16:57:32.626Z,261.40
2023-01-11T17:00:07.289Z,280.60
2023-01-11T17:02:35.485Z,399.60
2023-01-11T17:05:01.955Z,349.80
2023-01-11T17:07:30.325Z,287.80
2023-01-11T17:10:29.825Z,301.40
2023-01-11T17:12:59.354Z,279.10
2023-01-11T17:15:48.193Z,280.50
2023-01-11T17:18:14.976Z,378.50
2023-01-11T17:20:41.407Z,375.50
2023-01-11T17:23:15.546Z,332.40
2023-01-11T17:25:45.148Z,411.70
2023-01-11T17:28:19.887Z,372.90
2023-01-11T17:30:49.367Z,357.80
2023-01-11T17:33:29.082Z,317.90
2023-01-11T17:35:56.300Z,327.60
2023-01-11T17:38:25.483Z,316.80
2023-01-11T17:40:54.318Z,325.00
2023-01-11T17:43:24.038Z,410.40
2023-01-11T17:45:52.092Z,426.80
2023-01-11T17:48:18.684Z,412.40
2023-01-11T17:50:55.593Z,391.10
2023-01-11T17:53:24.973Z,429.00
2023-01-11T17:55:57.217Z,395.40
2023-01-11T17:58:38.229Z,344.30
2023-01-11T18:01:04.854Z,354.00
2023-01-11T18:03:41.661Z,362.30
2023-01-11T18:06:52.263Z,423.70
2023-01-11T18:10:04.000Z,478.90
2023-01-11T18:15:04.065Z,460.00
2023-01-11T18:17:38.131Z,417.70
2023-01-11T18:20:24.846Z,527.60
2023-01-11T18:23:05.048Z,473.20
2023-01-11T18:25:34.433Z,509.40
2023-01-11T18:28:21.860Z,487.40
2023-01-11T18:30:50.528Z,524.00
2023-01-11T18:33:20.528Z,467.30
2023-01-11T18:35:50.486Z,414.90
2023-01-11T18:38:20.010Z,414.00
2023-01-11T18:40:49.158Z,450.40
2023-01-11T18:43:20.563Z,432.40
2023-01-11T18:45:47.400Z,405.00
2023-01-11T18:48:15.097Z,434.20
2023-01-11T18:50:44.272Z,389.10
2023-01-11T18:53:12.775Z,390.40
2023-01-11T18:55:40.185Z,448.50
2023-01-11T18:58:07.023Z,444.20
2023-01-11T19:00:33.628Z,450.10
2023-01-11T19:03:00.695Z,433.70
2023-01-11T19:05:27.473Z,428.10
2023-01-11T19:07:54.166Z,364.20
2023-01-11T19:10:23.405Z,351.10
2023-01-11T19:12:50.525Z,383.10
2023-01-11T19:15:17.373Z,392.00
2023-01-11T19:17:44.208Z,398.90
2023-01-11T19:20:11.484Z,402.20
2023-01-11T19:22:38.754Z,383.30
2023-01-11T19:25:05.872Z,391.60
2023-01-11T19:27:32.758Z,367.50
2023-01-11T19:29:59.391Z,365.30
2023-01-11T19:32:25.860Z,338.80
2023-01-11T19:34:53.470Z,365.50
2023-01-11T19:37:20.041Z,349.80
2023-01-11T19:39:46.721Z,376.20
2023-01-11T19:42:13.336Z,406.30
2023-01-11T19:44:39.979Z,429.70
2023-01-11T19:47:12.112Z,388.30
2023-01-11T19:49:40.471Z,397.70
2023-01-11T19:52:07.557Z,408.70
2023-01-11T19:54:34.247Z,394.80
2023-01-11T19:57:00.999Z,393.50
2023-01-11T19:59:27.827Z,362.50
2023-01-11T20:01:54.328Z,394.70
2023-01-11T20:04:21.238Z,415.20
2023-01-11T20:06:47.661Z,428.20
2023-01-11T20:09:14.088Z,472.90
2023-01-11T20:11:40.640Z,515.80
2023-01-11T20:14:07.590Z,582.00
2023-01-11T20:16:34.045Z,556.70
2023-01-11T20:19:00.694Z,550.60
2023-01-11T20:21:28.946Z,474.50
2023-01-11T20:23:56.007Z,423.70
2023-01-11T20:26:22.651Z,466.40
2023-01-11T20:28:51.916Z,472.10
2023-01-11T20:31:18.710Z,501.00
2023-01-11T20:33:46.272Z,486.70
2023-01-11T20:36:18.042Z,491.50
2023-01-11T20:38:45.813Z,450.00
2023-01-11T20:41:15.112Z,467.70
2023-01-11T20:43:41.865Z,448.20
2023-01-11T20:46:08.478Z,463.60
2023-01-11T20:48:35.173Z,438.90
2023-01-11T20:51:05.167Z,432.60
2023-01-11T20:53:31.952Z,413.20
2023-01-11T20:55:58.404Z,498.30
2023-01-11T20:58:25.191Z,426.20
2023-01-11T21:00:51.943Z,426.10
2023-01-11T21:03:18.479Z,372.30
2023-01-11T21:05:45.018Z,381.10
2023-01-11T21:08:11.774Z,361.40
2023-01-11T21:10:38.325Z,344.70
2023-01-11T21:13:05.166Z,372.40
2023-01-11T21:15:31.707Z,341.20
2023-01-11T21:17:58.349Z,319.90
2023-01-11T21:20:24.888Z,302.30
2023-01-11T21:22:51.536Z,322.10
2023-01-11T21:25:18.072Z,308.30
2023-01-11T21:27:44.574Z,320.00
2023-01-11T21:30:11.888Z,314.40
2023-01-11T21:32:38.369Z,329.10
2023-01-11T21:35:05.466Z,320.30
2023-01-11T21:37:32.516Z,335.80
2023-01-11T21:39:59.227Z,347.30
2023-01-11T21:42:25.827Z,343.40
2023-01-11T21:44:52.349Z,341.40
2023-01-11T21:47:18.897Z,333.80
2023-01-11T21:49:45.562Z,328.70
2023-01-11T21:52:12.075Z,331.40
2023-01-11T21:54:38.523Z,309.90
2023-01-11T21:57:05.061Z,307.30
2023-01-11T21:59:31.565Z,281.60
2023-01-11T22:01:57.968Z,287.60
2023-01-11T22:04:24.531Z,287.10
2023-01-11T22:06:51.167Z,247.90
2023-01-11T22:09:18.184Z,273.10
2023-01-11T22:11:44.610Z,294.10
2023-01-11T22:14:11.280Z,294.80
2023-01-11T22:16:38.432Z,319.20
2023-01-11T22:19:06.597Z,289.90
2023-01-11T22:21:33.184Z,284.40
2023-01-11T22:24:00.157Z,321.60
2023-01-11T22:26:28.493Z,340.10
2023-01-11T22:28:58.210Z,317.40
2023-01-11T22:31:26.617Z,301.70
2023-01-11T22:33:54.135Z,283.60
2023-01-11T22:36:21.981Z,255.60
2023-01-11T22:38:48.573Z,315.00
2023-01-11T22:41:15.881Z,287.40
2023-01-11T22:43:43.097Z,272.40
2023-01-11T22:46:16.004Z,279.10
2023-01-11T22:48:44.495Z,253.10
2023-01-11T22:51:11.909Z,249.70
2023-01-11T22:53:40.015Z,237.90
2023-01-11T22:56:08.417Z,237.90
2023-01-11T22:58:35.733Z,257.00
2023-01-11T23:01:13.089Z,241.80
2023-01-11T23:03:40.840Z,248.20
2023-01-11T23:06:08.681Z,222.10
2023-01-11T23:08:40.133Z,234.80
2023-01-11T23:11:11.716Z,221.10
2023-01-11T23:13:38.245Z,225.20
2023-01-11T23:16:05.548Z,223.50
2023-01-11T23:18:32.055Z,223.20
2023-01-11T23:21:03.396Z,220.90
2023-01-11T23:23:29.884Z,199.40
2023-01-11T23:25:56.712Z,218.80
2023-01-11T23:28:23.549Z,204.40
2023-01-11T23:30:50.202Z,194.40
2023-01-11T23:33:17.255Z,192.10
2023-01-11T23:35:43.697Z,183.40
2023-01-11T23:38:10.155Z,175.30
2023-01-11T23:40:36.777Z,167.00
2023-01-11T23:43:03.318Z,170.00
2023-01-11T23:45:29.976Z,184.50
2023-01-11T23:47:56.461Z,177.20
2023-01-11T23:50:23.048Z,191.30
2023-01-11T23:52:49.701Z,207.70
2023-01-11T23:55:16.302Z,211.30
2023-01-11T23:57:42.743Z,221.60
